Andoya, Norway

7:53 AM CET on December 27, 2014 (GMT +0100)
Andoya Air Base | Change Station
CLOSE
Current Station
Airport
Location: Andoya,
Elevation: 43 ft
Nearby Weather Stations
Active Advisory: Wind

Elev 43 ft 69.29 °N, 16.14 °E | Updated 33 minutes ago

Mostly Cloudy
Mostly Cloudy
30 °F
Feels Like 16 °F
N
28
Wind Variable Wind from NW

Today
High -- | Low -- °F
--% Chance of Precip.
Yesterday
High -- | Low -- °F
Precip. -- in
11:23 AM 12:28 PM
Waxing Crescent, 33% visible
Pressure 29.80 in
Visibility 6.2 miles
Clouds Scattered Clouds 1200 ft
Mostly Cloudy 2000 ft
Windchill 16 °F
Dew Point 25 °F
Humidity 80%
Rainfall 0.00 in
Snow Depth Not available.
UV 0 out of 12
Pollen Not available.
Air Quality Not available.
Flu Activity Not available.
METAR ENAN 270620Z 31024KT 9999 VCSH SCT012CB BKN020 M01/M04 Q1009

More Conditions Fewer Conditions

Pressure 29.80 in
Visibility 6.2 miles
Clouds Scattered Clouds 1200 ft
Mostly Cloudy 2000 ft
Windchill 16 °F
Dew Point 25 °F
Humidity 80%
Rainfall 0.00 in
Snow Depth Not available.
UV 0 out of 12
Pollen Not available.
Air Quality Not available.
Flu Activity Not available.
METAR ENAN 270620Z 31024KT 9999 VCSH SCT012CB BKN020 M01/M04 Q1009

More Conditions Fewer Conditions

10-Day Weather Forecast

Almanac

Astronomy

Dec. 27, 2014 Rise Set
Actual Time
Civil Twilight
Nautical Twilight
Astronomical Twilight
Moon
Length of Visible Light
Length of Day
Tomorrow will be .
, % of the Moon is Illuminated

Today's Extremes

Country Highs Country Lows

Community

WunderPhotos

Upload Photos

1,780,863 photos uploaded!

WunderBlogs® & News

Nearby

Air Quality

  Air Quality AQ Index Pollutant
Not available.

Snow Depth

Station Depth Elevation

Earthquake Activity

City Distance Mag. Time & Date
Minimum magnitude displayed is 2.5.

Coastal Water Temperatures

Place Temperature

Nearby Weather Stations